Time;durP1;ratioP1;P1;durP2;ratioP2;P2;SDS_P1;SDS_P2;PMS_P1;PMS_P2;Temp;Humidity;BMP_temperature;BMP_pressure;BME280_temperature;BME280_humidity;BME280_pressure;Samples;Min_cycle;Max_cycle;Signal;HPM_P1;HPM_P2
2022/06/23 00:02:14;;;;;;;3.45;1.80;;;25.30;43.00;;;;;;4902490;29;20032;-78
2022/06/23 00:04:44;;;;;;;2.03;1.48;;;25.30;43.10;;;;;;4886377;29;20039;-79
2022/06/23 00:07:26;;;;;;;3.03;1.70;;;25.30;43.10;;;;;;4901524;29;20035;-79
2022/06/23 00:09:57;;;;;;;2.28;1.80;;;25.20;43.20;;;;;;4886602;29;20028;-78
2022/06/23 00:12:36;;;;;;;3.28;1.77;;;25.20;43.30;;;;;;4901814;29;20032;-80
2022/06/23 00:15:02;;;;;;;2.80;1.92;;;25.10;43.40;;;;;;4900852;29;20494;-79
2022/06/23 00:17:33;;;;;;;1.83;1.42;;;25.10;43.30;;;;;;4918316;29;20068;-80
2022/06/23 00:20:05;;;;;;;2.63;1.70;;;25.10;43.40;;;;;;4901439;29;20111;-79
2022/06/23 00:22:32;;;;;;;3.13;1.90;;;25.00;43.40;;;;;;4917493;29;20029;-80
2022/06/23 00:25:03;;;;;;;3.45;1.95;;;25.00;43.50;;;;;;4886587;29;20032;-77
2022/06/23 00:27:32;;;;;;;2.33;1.70;;;25.00;43.60;;;;;;4917108;29;20035;-77
2022/06/23 00:30:06;;;;;;;3.72;1.92;;;24.90;43.70;;;;;;4901257;29;20536;-80
2022/06/23 00:32:32;;;;;;;3.33;1.92;;;24.90;43.70;;;;;;4918344;29;20032;-78
2022/06/23 00:35:05;;;;;;;2.95;1.58;;;24.90;43.70;;;;;;4901869;29;20059;-78
2022/06/23 00:37:31;;;;;;;3.10;1.75;;;24.80;43.80;;;;;;4917185;29;20048;-78
2022/06/23 00:40:10;;;;;;;3.65;2.00;;;24.80;43.80;;;;;;4886024;29;20119;-78
2022/06/23 00:43:02;;;;;;;2.10;1.52;;;24.80;43.90;;;;;;4916979;29;20043;-79
2022/06/23 00:45:31;;;;;;;2.88;2.00;;;24.70;44.00;;;;;;4901263;29;20044;-78
2022/06/23 00:48:24;;;;;;;2.70;1.80;;;24.70;44.10;;;;;;4916531;29;20138;-79
2022/06/23 00:50:57;;;;;;;4.25;1.88;;;24.60;44.80;;;;;;4900620;29;20116;-79
2022/06/23 00:53:42;;;;;;;2.77;1.80;;;24.60;44.20;;;;;;4901061;29;20119;-80
2022/06/23 00:56:16;;;;;;;2.35;1.70;;;24.60;44.30;;;;;;4901653;29;20119;-78
2022/06/23 00:59:09;;;;;;;2.38;1.85;;;24.50;44.30;;;;;;4900707;29;20035;-79
2022/06/23 01:01:57;;;;;;;3.13;1.77;;;24.50;44.40;;;;;;4901015;29;20035;-77
2022/06/23 01:04:46;;;;;;;3.72;2.10;;;24.40;44.50;;;;;;4917032;29;20040;-79
2022/06/23 01:07:34;;;;;;;3.15;1.80;;;24.40;44.40;;;;;;4901294;29;20032;-78
2022/06/23 01:10:00;;;;;;;3.08;1.98;;;24.30;44.50;;;;;;4916433;29;20051;-79
2022/06/23 01:12:51;;;;;;;2.42;1.70;;;24.30;44.50;;;;;;4917198;29;20429;-79
2022/06/23 01:15:29;;;;;;;2.85;1.85;;;24.30;44.70;;;;;;4884560;29;20096;-79
2022/06/23 01:18:13;;;;;;;3.25;1.98;;;24.20;44.70;;;;;;4917155;29;20028;-80
2022/06/23 01:21:06;;;;;;;2.00;1.65;;;24.20;44.70;;;;;;4885385;29;20149;-79
2022/06/23 01:23:53;;;;;;;3.08;2.03;;;24.20;44.90;;;;;;4916109;29;20031;-79
2022/06/23 01:26:50;;;;;;;1.88;1.60;;;24.10;44.90;;;;;;4900524;29;20168;-79
2022/06/23 01:29:36;;;;;;;3.20;1.85;;;24.10;45.00;;;;;;4885027;29;20586;-78
2022/06/23 01:32:34;;;;;;;2.33;1.60;;;24.00;45.00;;;;;;4900476;29;20143;-79
2022/06/23 01:35:16;;;;;;;3.80;2.03;;;24.00;45.10;;;;;;4916752;29;20446;-78
2022/06/23 01:37:49;;;;;;;2.88;1.80;;;24.00;45.10;;;;;;4916368;29;20058;-79
2022/06/23 01:40:18;;;;;;;3.07;1.97;;;23.90;45.10;;;;;;4917166;29;20043;-78
2022/06/23 01:42:49;;;;;;;3.08;2.03;;;23.90;45.10;;;;;;4899929;29;20047;-81
2022/06/23 01:45:22;;;;;;;2.78;2.00;;;23.80;45.10;;;;;;4915860;29;20054;-79
2022/06/23 01:48:14;;;;;;;3.15;1.88;;;23.80;45.20;;;;;;4917121;29;20116;-79
2022/06/23 01:50:40;;;;;;;2.60;1.88;;;23.80;45.20;;;;;;4895154;29;20048;-79
2022/06/23 01:53:09;;;;;;;2.90;1.85;;;23.80;45.30;;;;;;4916496;29;20054;-79
2022/06/23 01:55:53;;;;;;;2.47;1.88;;;23.70;45.30;;;;;;4916429;29;20534;-79
2022/06/23 01:58:21;;;;;;;;;;;23.70;45.50;;;;;;4917317;29;20051;-79
2022/06/23 02:00:50;;;;;;;3.45;1.75;;;23.70;45.30;;;;;;4916570;29;19907;-78
2022/06/23 02:03:28;;;;;;;3.67;2.08;;;23.60;45.30;;;;;;4884386;29;20028;-79
2022/06/23 02:06:04;;;;;;;3.67;1.85;;;23.60;46.20;;;;;;4899884;29;20047;-79
2022/06/23 02:08:49;;;;;;;3.28;1.95;;;23.50;45.60;;;;;;4900403;29;20036;-79
2022/06/23 02:11:27;;;;;;;2.78;1.92;;;23.50;45.70;;;;;;4899978;29;20074;-81
2022/06/23 02:14:14;;;;;;;3.35;2.25;;;23.50;45.70;;;;;;4900351;29;20088;-79
2022/06/23 02:16:44;;;;;;;2.80;1.92;;;23.40;45.80;;;;;;4896317;29;20052;-80
2022/06/23 02:19:29;;;;;;;3.30;2.08;;;23.40;45.80;;;;;;4881750;29;20091;-78
2022/06/23 02:22:04;;;;;;;2.63;1.90;;;23.40;45.90;;;;;;4881278;29;20397;-80
2022/06/23 02:24:55;;;;;;;2.83;1.83;;;23.30;45.80;;;;;;4880748;29;20028;-79
2022/06/23 02:27:59;;;;;;;3.53;2.00;;;23.30;46.00;;;;;;4897482;29;20035;-78
2022/06/23 02:30:36;;;;;;;2.58;1.92;;;23.30;46.00;;;;;;4842545;29;20041;-79
2022/06/23 02:33:11;;;;;;;2.88;1.98;;;23.30;46.10;;;;;;4893231;29;20044;-78
2022/06/23 02:35:53;;;;;;;1.98;1.60;;;23.20;46.10;;;;;;4897131;29;20432;-79
2022/06/23 02:38:41;;;;;;;2.33;1.77;;;23.20;46.20;;;;;;4897031;29;20056;-79
2022/06/23 02:41:26;;;;;;;2.50;1.83;;;23.20;46.30;;;;;;4912006;29;20509;-79
2022/06/23 02:44:18;;;;;;;2.78;1.92;;;23.10;46.20;;;;;;4896543;29;20063;-78
2022/06/23 02:47:03;;;;;;;3.00;2.10;;;23.10;46.20;;;;;;4896619;29;20417;-78
2022/06/23 02:50:00;;;;;;;2.60;1.83;;;23.10;46.20;;;;;;4896809;29;20132;-80
2022/06/23 02:52:54;;;;;;;3.97;2.20;;;23.00;46.30;;;;;;4896250;29;20041;-79
2022/06/23 02:55:45;;;;;;;2.40;1.70;;;23.00;46.30;;;;;;4876277;29;20169;-80
2022/06/23 02:58:18;;;;;;;3.65;2.10;;;22.90;46.30;;;;;;4896270;29;20073;-79
2022/06/23 03:01:05;;;;;;;2.53;1.90;;;22.90;46.40;;;;;;4913684;29;20037;-79
2022/06/23 03:03:44;;;;;;;3.10;1.85;;;22.90;46.60;;;;;;4915816;29;20032;-81
2022/06/23 03:06:13;;;;;;;2.95;2.10;;;22.90;46.50;;;;;;4899628;29;20032;-79
2022/06/23 03:08:54;;;;;;;3.17;2.30;;;22.80;46.50;;;;;;4884460;29;20055;-79
2022/06/23 03:14:20;;;;;;;2.90;2.05;;;22.80;46.60;;;;;;4899754;29;20036;-78
2022/06/23 03:16:53;;;;;;;3.08;2.17;;;22.80;46.60;;;;;;4900588;29;20141;-79
2022/06/23 03:19:27;;;;;;;3.75;2.28;;;22.70;46.60;;;;;;4918801;29;20047;-80
2022/06/23 03:22:07;;;;;;;2.45;1.95;;;22.70;46.60;;;;;;4887057;29;20127;-79
2022/06/23 03:24:59;;;;;;;2.47;1.83;;;22.70;46.70;;;;;;4918826;29;20032;-79
2022/06/23 03:27:42;;;;;;;2.63;1.83;;;22.60;46.80;;;;;;4918242;29;20024;-79
2022/06/23 03:30:23;;;;;;;2.45;1.80;;;22.60;46.70;;;;;;4902468;29;20036;-82
2022/06/23 03:33:00;;;;;;;3.58;2.08;;;22.60;46.90;;;;;;4886620;29;20032;-80
2022/06/23 03:35:43;;;;;;;3.55;2.00;;;22.50;46.90;;;;;;4902288;29;20036;-79
2022/06/23 03:41:36;;;;;;;3.72;2.40;;;22.50;46.90;;;;;;4918055;29;20032;-80
2022/06/23 03:44:25;;;;;;;3.58;1.90;;;22.50;46.90;;;;;;4902138;29;20036;-79
2022/06/23 03:47:18;;;;;;;3.05;1.80;;;22.40;46.90;;;;;;4901955;29;20032;-79
2022/06/23 03:50:04;;;;;;;2.58;2.00;;;22.40;47.00;;;;;;4901866;29;20032;-78
2022/06/23 03:52:59;;;;;;;3.40;1.95;;;22.40;47.10;;;;;;4901320;29;20469;-78
2022/06/23 03:55:28;;;;;;;3.33;2.20;;;22.30;47.10;;;;;;4899434;29;20345;-78
2022/06/23 03:58:10;;;;;;;2.60;2.10;;;22.30;47.00;;;;;;4901627;29;20484;-79
2022/06/23 04:00:40;;;;;;;2.83;2.28;;;22.30;47.10;;;;;;4902072;29;20159;-78
2022/06/23 04:03:20;;;;;;;3.13;2.10;;;22.30;47.10;;;;;;4901476;29;20487;-79
2022/06/23 04:05:55;;;;;;;2.47;1.83;;;22.20;47.20;;;;;;4918361;29;20516;-79
2022/06/23 04:08:23;;;;;;;3.28;1.98;;;22.20;47.20;;;;;;4917439;29;20362;-79
2022/06/23 04:10:52;;;;;;;3.33;2.20;;;22.20;47.10;;;;;;4886615;29;20461;-79
2022/06/23 04:13:38;;;;;;;3.83;2.22;;;22.20;47.20;;;;;;4917815;29;20552;-78
2022/06/23 04:16:09;;;;;;;2.92;1.92;;;22.10;47.40;;;;;;4886350;29;20055;-79
2022/06/23 04:18:40;;;;;;;3.65;2.28;;;22.10;47.20;;;;;;4901689;29;20036;-79
2022/06/23 04:21:28;;;;;;;3.28;2.08;;;22.10;47.30;;;;;;4917482;29;20081;-79
2022/06/23 04:23:57;;;;;;;4.07;2.00;;;22.10;47.40;;;;;;4885694;29;20521;-78
2022/06/23 04:26:32;;;;;;;2.70;1.90;;;22.00;47.30;;;;;;4901154;29;20414;-79
2022/06/23 04:29:10;;;;;;;3.55;2.30;;;22.00;48.00;;;;;;4916867;29;20036;-78
2022/06/23 04:31:47;;;;;;;2.38;2.03;;;22.00;47.40;;;;;;4916832;29;20180;-78
2022/06/23 04:34:40;;;;;;;3.15;2.15;;;22.00;47.50;;;;;;4901064;29;20028;-80
2022/06/23 04:37:12;;;;;;;3.03;2.13;;;22.00;47.60;;;;;;4900555;29;20032;-79
2022/06/23 04:39:42;;;;;;;2.78;2.03;;;21.90;47.50;;;;;;4886051;29;20080;-79
2022/06/23 04:42:13;;;;;;;2.70;2.15;;;21.90;47.60;;;;;;4900711;29;20114;-80
2022/06/23 04:44:50;;;;;;;4.05;2.38;;;21.90;47.60;;;;;;4900844;29;20032;-80
2022/06/23 04:47:23;;;;;;;3.00;1.80;;;21.90;47.70;;;;;;4917841;29;20485;-79
2022/06/23 04:49:53;;;;;;;3.45;2.00;;;21.90;47.70;;;;;;4916822;29;20103;-79
2022/06/23 04:52:28;;;;;;;3.67;2.33;;;21.90;47.70;;;;;;4885634;29;20548;-80
2022/06/23 04:55:15;;;;;;;2.67;1.83;;;21.90;47.90;;;;;;4900945;29;20040;-78
2022/06/23 04:57:58;;;;;;;3.42;2.10;;;21.80;47.80;;;;;;4901484;29;20051;-79
2022/06/23 05:00:26;;;;;;;2.90;2.05;;;21.80;47.90;;;;;;4918227;29;20119;-80
2022/06/23 05:03:15;;;;;;;3.65;2.28;;;21.80;47.80;;;;;;4900767;29;20032;-81
2022/06/23 05:05:42;;;;;;;3.60;2.17;;;21.80;48.00;;;;;;4916715;29;20028;-80
2022/06/23 05:08:18;;;;;;;3.55;1.90;;;21.80;48.00;;;;;;4884916;29;20538;-80
2022/06/23 05:11:07;;;;;;;2.72;2.03;;;21.80;48.00;;;;;;4900673;29;20036;-82
2022/06/23 05:14:04;;;;;;;3.22;2.08;;;21.80;48.00;;;;;;4901217;29;20129;-80
2022/06/23 05:16:40;;;;;;;2.72;1.88;;;21.70;48.20;;;;;;4900144;29;20052;-82
2022/06/23 05:19:10;;;;;;;2.95;2.33;;;21.70;48.10;;;;;;4900496;29;20036;-81
2022/06/23 05:21:53;;;;;;;3.28;2.08;;;21.70;48.10;;;;;;4900026;29;20530;-79
2022/06/23 05:24:27;;;;;;;3.33;2.10;;;21.70;48.30;;;;;;4900202;29;20039;-79
2022/06/23 05:27:15;;;;;;;3.05;1.90;;;21.70;48.30;;;;;;4917777;29;20543;-79
2022/06/23 05:29:49;;;;;;;4.10;2.70;;;21.70;48.40;;;;;;4900177;29;20084;-79
2022/06/23 05:32:21;;;;;;;3.50;2.20;;;21.70;48.40;;;;;;4915849;29;20047;-79
2022/06/23 05:35:19;;;;;;;3.03;1.98;;;21.70;48.40;;;;;;4900263;29;20347;-80
2022/06/23 05:38:12;;;;;;;3.10;2.00;;;21.70;48.50;;;;;;4900514;29;20420;-82
2022/06/23 05:40:59;;;;;;;2.45;1.77;;;21.70;48.60;;;;;;4885440;29;20165;-78
2022/06/23 05:43:26;;;;;;;4.20;2.00;;;21.70;48.60;;;;;;4900447;29;20438;-78
2022/06/23 05:45:56;;;;;;;4.38;2.50;;;21.70;48.60;;;;;;4915383;29;20031;-79
2022/06/23 05:48:32;;;;;;;2.85;2.10;;;21.70;48.70;;;;;;4915587;29;20032;-79
2022/06/23 05:51:07;;;;;;;2.50;1.92;;;21.70;48.70;;;;;;4900375;29;20078;-77
2022/06/23 05:53:36;;;;;;;2.63;2.00;;;21.70;48.80;;;;;;4899998;29;20024;-80
2022/06/23 05:56:15;;;;;;;3.42;2.30;;;21.70;48.70;;;;;;4916643;29;20028;-79
2022/06/23 05:59:04;;;;;;;2.92;2.17;;;21.70;48.90;;;;;;4900286;29;20064;-78
2022/06/23 06:01:35;;;;;;;2.97;2.17;;;21.70;48.90;;;;;;4917058;29;20095;-79
2022/06/23 06:04:13;;;;;;;3.13;2.13;;;21.70;48.90;;;;;;4900006;29;20123;-78
2022/06/23 06:06:40;;;;;;;3.50;2.35;;;21.70;49.00;;;;;;4916358;29;20028;-79
2022/06/23 06:11:56;;;;;;;3.28;2.20;;;21.70;49.00;;;;;;4915880;29;20036;-78
2022/06/23 06:14:27;;;;;;;2.50;2.13;;;21.70;49.00;;;;;;4900085;29;20469;-79
2022/06/23 06:16:57;;;;;;;3.55;2.33;;;21.70;49.10;;;;;;4900059;29;20176;-79
2022/06/23 06:19:24;;;;;;;4.03;1.98;;;21.70;49.10;;;;;;4900338;29;20036;-78
2022/06/23 06:21:55;;;;;;;3.95;2.22;;;21.70;49.20;;;;;;4884408;29;20062;-77
2022/06/23 06:24:31;;;;;;;2.90;2.05;;;21.70;49.20;;;;;;4916470;29;20028;-79
2022/06/23 06:27:00;;;;;;;3.80;2.58;;;21.70;49.30;;;;;;4916269;29;20457;-78
2022/06/23 06:29:32;;;;;;;3.45;2.28;;;21.70;49.20;;;;;;4899987;29;20029;-79
2022/06/23 06:32:30;;;;;;;3.15;2.42;;;21.70;49.30;;;;;;4899867;29;20087;-78
2022/06/23 06:35:23;;;;;;;3.33;2.20;;;21.70;49.40;;;;;;4879219;29;20095;-78
2022/06/23 06:37:58;;;;;;;3.65;2.38;;;21.70;49.40;;;;;;4919342;29;20039;-79
2022/06/23 06:40:25;;;;;;;3.58;2.35;;;21.80;49.40;;;;;;4919287;29;20461;-77
2022/06/23 06:43:02;;;;;;;3.53;2.30;;;21.80;49.40;;;;;;4903589;29;20028;-80
2022/06/23 06:45:33;;;;;;;3.58;2.45;;;21.80;49.50;;;;;;4919340;29;20028;-81
2022/06/23 06:47:59;;;;;;;2.90;2.20;;;21.80;49.50;;;;;;4919050;29;20032;-80
2022/06/23 06:50:39;;;;;;;3.65;2.30;;;21.80;49.60;;;;;;4903217;29;20044;-79
2022/06/23 06:53:14;;;;;;;2.97;2.33;;;21.80;49.70;;;;;;4920184;29;20024;-80
2022/06/23 06:55:47;;;;;;;3.58;2.30;;;21.80;49.60;;;;;;4903446;29;20028;-78
2022/06/23 06:58:42;;;;;;;4.53;2.37;;;21.90;49.70;;;;;;4920135;29;20032;-78
2022/06/23 07:01:25;;;;;;;3.67;2.00;;;21.80;49.70;;;;;;4886466;29;20131;-80
2022/06/23 07:03:53;;;;;;;3.38;2.45;;;21.90;49.70;;;;;;4919722;29;20034;-80
2022/06/23 07:06:49;;;;;;;3.83;2.30;;;21.90;49.60;;;;;;4918419;29;20088;-81
2022/06/23 07:09:42;;;;;;;3.30;2.42;;;21.90;49.80;;;;;;4919668;29;20036;-81
2022/06/23 07:12:23;;;;;;;2.63;2.17;;;21.90;49.80;;;;;;4903729;29;20473;-79
2022/06/23 07:14:58;;;;;;;2.63;2.20;;;21.90;49.60;;;;;;4918821;29;20043;-78
2022/06/23 07:17:47;;;;;;;3.50;2.40;;;21.90;49.70;;;;;;4903001;29;20052;-80
2022/06/23 07:20:22;;;;;;;3.40;2.20;;;21.90;49.80;;;;;;4919751;29;20042;-80
2022/06/23 07:23:08;;;;;;;2.97;2.20;;;22.00;49.70;;;;;;4918669;29;20378;-83
2022/06/23 07:25:43;;;;;;;3.05;2.10;;;22.00;49.80;;;;;;4887378;29;20050;-79
2022/06/23 07:28:18;;;;;;;2.83;2.13;;;22.00;49.80;;;;;;4919248;29;20028;-79
2022/06/23 07:30:56;;;;;;;3.28;2.40;;;22.10;49.80;;;;;;4902816;29;20040;-80
2022/06/23 07:33:31;;;;;;;3.08;2.20;;;22.10;49.80;;;;;;4918466;29;20049;-80
2022/06/23 07:36:27;;;;;;;2.80;2.03;;;22.20;49.80;;;;;;4902695;29;20024;-80
2022/06/23 07:39:02;;;;;;;3.50;2.10;;;22.20;49.80;;;;;;4882619;29;20048;-80
2022/06/23 07:41:34;;;;;;;2.80;2.03;;;22.30;49.70;;;;;;4919369;29;20039;-81
2022/06/23 07:44:22;;;;;;;3.63;2.25;;;22.30;49.60;;;;;;4901977;29;20039;-77
2022/06/23 07:46:48;;;;;;;2.67;2.10;;;22.40;49.70;;;;;;4901039;29;20028;-78
2022/06/23 07:49:14;;;;;;;3.85;2.33;;;22.40;49.40;;;;;;4918816;29;20032;-75
2022/06/23 07:51:41;;;;;;;3.40;1.95;;;22.50;49.40;;;;;;4919120;29;20576;-77
2022/06/23 07:54:14;;;;;;;2.60;1.80;;;22.50;49.40;;;;;;4871851;29;20100;-80
2022/06/23 07:56:40;;;;;;;3.53;2.10;;;22.60;49.40;;;;;;4919039;29;20055;-83
2022/06/23 07:59:11;;;;;;;3.03;2.10;;;22.70;49.30;;;;;;4902186;29;20063;-79
2022/06/23 08:01:59;;;;;;;2.80;1.85;;;22.80;49.30;;;;;;4901969;29;20067;-80
2022/06/23 08:04:42;;;;;;;2.22;1.73;;;22.90;49.40;;;;;;4901727;29;20032;-79
2022/06/23 08:07:11;;;;;;;3.28;1.85;;;22.90;49.90;;;;;;4918814;29;20128;-80
2022/06/23 08:09:41;;;;;;;3.38;2.00;;;23.00;49.10;;;;;;4901839;29;20036;-81
2022/06/23 08:17:50;;;;;;;3.38;1.98;;;23.20;49.00;;;;;;4917555;29;20047;-83
2022/06/23 08:20:21;;;;;;;2.65;1.85;;;23.30;48.90;;;;;;4918842;29;20039;-80
2022/06/23 08:22:48;;;;;;;2.90;1.95;;;23.40;49.60;;;;;;4901395;29;20080;-79
2022/06/23 08:25:15;;;;;;;2.55;1.80;;;23.50;48.90;;;;;;4901567;29;20029;-87
2022/06/23 08:27:43;;;;;;;3.08;1.90;;;23.60;48.80;;;;;;4902108;29;20088;-83
2022/06/23 08:30:15;;;;;;;2.63;1.95;;;23.60;48.80;;;;;;4885850;29;20036;-79
2022/06/23 08:32:46;;;;;;;3.05;2.10;;;23.80;48.80;;;;;;4902126;29;20095;-79
2022/06/23 08:35:50;;;;;;;3.38;2.17;;;23.80;48.70;;;;;;4918390;29;20115;-81
2022/06/23 08:38:21;;;;;;;3.72;1.80;;;23.90;48.70;;;;;;4889456;29;20040;-83
2022/06/23 08:41:01;;;;;;;2.75;1.95;;;24.10;48.70;;;;;;4917309;29;20056;-82
2022/06/23 08:43:51;;;;;;;2.78;1.90;;;24.10;48.60;;;;;;4901364;29;20032;-81
2022/06/23 08:46:29;;;;;;;2.70;1.77;;;24.20;48.70;;;;;;4918685;29;20032;-81
2022/06/23 08:49:16;;;;;;;2.95;1.90;;;24.40;48.80;;;;;;4916841;29;20111;-79
2022/06/23 08:51:44;;;;;;;2.47;1.90;;;24.50;48.80;;;;;;4916544;29;20047;-80
2022/06/23 08:54:19;;;;;;;2.95;1.75;;;24.60;48.70;;;;;;4916637;29;20024;-79
2022/06/23 08:56:56;;;;;;;2.53;1.77;;;24.70;48.80;;;;;;4916680;29;20033;-77
2022/06/23 08:59:37;;;;;;;3.70;2.00;;;24.80;48.80;;;;;;4916150;29;20040;-82
2022/06/23 09:02:35;;;;;;;2.72;1.75;;;24.90;48.70;;;;;;4900937;29;20103;-76
2022/06/23 09:05:18;;;;;;;2.45;1.80;;;25.00;48.70;;;;;;4917071;29;20051;-77
2022/06/23 09:07:57;;;;;;;1.50;1.40;;;25.10;48.60;;;;;;4916130;29;20028;-77
2022/06/23 09:10:35;;;;;;;1.92;1.63;;;25.20;49.20;;;;;;4900698;29;20097;-79
2022/06/23 09:13:13;;;;;;;2.05;1.70;;;25.30;48.60;;;;;;4916394;29;20489;-77
2022/06/23 09:15:45;;;;;;;2.28;1.80;;;25.40;48.70;;;;;;4897626;29;20049;-79
2022/06/23 09:18:36;;;;;;;4.47;2.00;;;25.60;48.60;;;;;;4913641;29;20047;-81
2022/06/23 09:21:39;;;;;;;2.33;1.73;;;25.70;48.70;;;;;;4898048;29;20446;-82
2022/06/23 09:24:40;;;;;;;2.53;1.70;;;25.80;48.70;;;;;;4898449;29;20474;-82
2022/06/23 09:27:19;;;;;;;2.60;1.60;;;25.90;48.70;;;;;;4897534;29;20032;-78
2022/06/23 09:30:12;;;;;;;2.03;1.80;;;26.00;48.50;;;;;;4898206;29;20064;-85
2022/06/23 09:32:44;;;;;;;3.67;1.67;;;26.10;48.70;;;;;;4898997;29;20116;-78
2022/06/23 09:35:48;;;;;;;3.30;2.15;;;26.20;48.70;;;;;;4897685;29;20040;-79
2022/06/23 09:38:34;;;;;;;2.28;1.67;;;26.40;48.90;;;;;;4882029;29;20043;-76
2022/06/23 09:41:22;;;;;;;2.92;1.73;;;26.50;48.80;;;;;;4912701;29;20076;-78
2022/06/23 09:44:18;;;;;;;2.58;1.80;;;26.60;48.80;;;;;;4898015;29;20032;-76
2022/06/23 09:47:02;;;;;;;2.22;1.70;;;26.70;48.90;;;;;;4881959;29;20032;-76
2022/06/23 09:50:03;;;;;;;2.10;1.60;;;26.90;49.00;;;;;;4912707;29;20433;-75
2022/06/23 09:53:08;;;;;;;2.42;1.90;;;27.00;48.80;;;;;;4889449;29;20089;-76
2022/06/23 09:55:50;;;;;;;2.60;1.58;;;27.10;48.90;;;;;;4898155;29;20097;-76
2022/06/23 09:58:53;;;;;;;2.78;1.73;;;27.30;48.70;;;;;;4881247;29;20136;-76
2022/06/23 10:01:56;;;;;;;2.80;1.75;;;27.30;48.70;;;;;;4881962;29;20095;-76
2022/06/23 10:04:28;;;;;;;2.13;1.63;;;27.50;48.80;;;;;;4885362;29;20184;-75
2022/06/23 10:07:18;;;;;;;3.50;1.80;;;27.60;48.80;;;;;;4912524;29;20048;-76
2022/06/23 10:09:55;;;;;;;2.10;1.60;;;27.70;48.80;;;;;;4897110;29;20513;-76
2022/06/23 10:12:36;;;;;;;2.05;1.63;;;27.80;48.70;;;;;;4900477;29;20104;-77
2022/06/23 10:15:08;;;;;;;1.88;1.58;;;28.00;49.00;;;;;;4904652;29;20187;-75
2022/06/23 10:17:42;;;;;;;3.22;1.70;;;28.10;49.00;;;;;;4919020;29;20033;-77
2022/06/23 10:20:34;;;;;;;3.08;1.88;;;28.20;49.00;;;;;;4919629;29;20044;-76
2022/06/23 10:23:35;;;;;;;2.40;1.48;;;28.30;49.00;;;;;;4919258;29;20043;-75
2022/06/23 10:26:07;;;;;;;2.30;1.70;;;28.40;48.80;;;;;;4903143;29;20080;-77
2022/06/23 10:28:51;;;;;;;2.33;1.63;;;28.50;48.70;;;;;;4903267;29;20052;-77
2022/06/23 10:31:43;;;;;;;2.28;1.60;;;28.70;48.70;;;;;;4919559;29;20070;-77
2022/06/23 10:34:09;;;;;;;2.40;1.55;;;28.80;48.60;;;;;;4893245;29;20040;-76
2022/06/23 10:37:07;;;;;;;3.10;1.58;;;28.90;48.60;;;;;;4918936;29;20088;-77
2022/06/23 10:40:08;;;;;;;2.10;1.45;;;29.00;48.80;;;;;;4919105;29;20036;-77
2022/06/23 10:42:51;;;;;;;1.88;1.40;;;29.10;48.80;;;;;;4919999;29;20032;-77
2022/06/23 10:45:21;;;;;;;2.30;1.67;;;29.30;48.80;;;;;;4903598;29;20492;-78
2022/06/23 10:48:06;;;;;;;3.42;1.70;;;29.40;48.80;;;;;;4919029;29;20409;-78
2022/06/23 10:50:50;;;;;;;2.47;1.65;;;29.50;48.90;;;;;;4919183;29;20040;-77
2022/06/23 10:53:27;;;;;;;1.90;1.57;;;29.60;48.80;;;;;;4918869;29;20042;-77
2022/06/23 10:56:27;;;;;;;1.88;1.50;;;29.70;48.70;;;;;;4920380;29;20035;-78
2022/06/23 10:59:10;;;;;;;3.08;1.42;;;29.80;48.80;;;;;;4919643;29;20100;-79
2022/06/23 11:01:55;;;;;;;2.15;1.50;;;29.90;48.70;;;;;;4920086;29;20028;-79
2022/06/23 11:04:27;;;;;;;1.50;1.30;;;30.00;48.80;;;;;;4919592;29;20051;-79
2022/06/23 11:07:11;;;;;;;1.95;1.48;;;30.20;48.90;;;;;;4918324;29;20477;-76
2022/06/23 11:09:56;;;;;;;1.77;1.42;;;30.20;48.80;;;;;;4919868;29;20028;-77
2022/06/23 11:12:44;;;;;;;3.33;1.67;;;30.30;48.80;;;;;;4918803;29;20039;-77
2022/06/23 11:15:10;;;;;;;3.17;1.60;;;30.40;48.80;;;;;;4902504;29;20064;-79
2022/06/23 11:18:07;;;;;;;1.70;1.30;;;30.50;48.80;;;;;;4902736;29;20508;-81
2022/06/23 11:21:00;;;;;;;1.77;1.40;;;30.60;48.80;;;;;;4918910;29;20032;-80
2022/06/23 11:23:59;;;;;;;1.58;1.30;;;30.60;48.80;;;;;;4887501;29;20036;-80
2022/06/23 11:27:06;;;;;;;1.92;1.30;;;30.70;49.00;;;;;;4919841;29;20033;-81
2022/06/23 11:30:09;;;;;;;2.42;1.55;;;30.80;49.00;;;;;;4903169;29;20049;-76
2022/06/23 11:33:29;;;;;;;2.03;1.33;;;30.90;49.20;;;;;;4902409;29;20032;-79
2022/06/23 11:35:57;;;;;;;1.42;1.30;;;30.90;49.20;;;;;;4827291;29;20056;-79
2022/06/23 11:38:56;;;;;;;1.83;1.40;;;31.00;49.10;;;;;;4872860;29;20036;-78
2022/06/23 11:41:52;;;;;;;2.13;1.60;;;31.00;49.20;;;;;;4919116;29;20036;-78
2022/06/23 11:44:26;;;;;;;2.05;1.35;;;31.00;49.20;;;;;;4904367;29;20083;-77
2022/06/23 11:46:58;;;;;;;3.53;1.58;;;31.10;49.30;;;;;;4917835;29;20111;-80
2022/06/23 11:50:01;;;;;;;2.10;1.55;;;31.20;49.40;;;;;;4918087;29;20040;-79
2022/06/23 11:52:45;;;;;;;2.05;1.60;;;31.20;49.60;;;;;;4918585;29;20040;-79
2022/06/23 11:55:22;;;;;;;2.78;1.60;;;31.20;49.40;;;;;;4917949;29;20123;-78
2022/06/23 11:58:11;;;;;;;2.45;1.70;;;31.20;49.60;;;;;;4917764;29;20032;-79
2022/06/23 12:01:07;;;;;;;2.03;1.50;;;31.30;49.80;;;;;;4918046;29;20060;-79
2022/06/23 12:03:57;;;;;;;3.78;1.80;;;31.30;49.90;;;;;;4917970;29;20028;-79
2022/06/23 12:06:50;;;;;;;2.70;1.40;;;31.40;50.00;;;;;;4918855;29;20024;-78
2022/06/23 12:09:42;;;;;;;2.08;1.55;;;31.40;49.70;;;;;;4919085;29;20036;-78
2022/06/23 12:12:08;;;;;;;2.95;1.92;;;31.40;49.80;;;;;;4886035;29;20028;-78
2022/06/23 12:14:36;;;;;;;2.63;1.52;;;31.50;49.70;;;;;;4886811;29;20028;-79
2022/06/23 12:17:24;;;;;;;3.47;2.05;;;31.50;49.90;;;;;;4916809;29;20040;-78
2022/06/23 12:20:14;;;;;;;1.83;1.50;;;31.50;49.80;;;;;;4901414;29;20036;-79
2022/06/23 12:22:49;;;;;;;3.08;1.73;;;31.50;49.60;;;;;;4901442;29;20057;-83
2022/06/23 12:25:24;;;;;;;1.75;1.60;;;31.60;49.60;;;;;;4886181;29;20140;-78
2022/06/23 12:28:08;;;;;;;2.22;1.60;;;31.60;49.60;;;;;;4917780;29;20051;-79
2022/06/23 12:30:39;;;;;;;;;;;31.60;49.60;;;;;;4886986;29;20484;-78
2022/06/23 12:33:17;;;;;;;2.97;1.40;;;31.70;49.60;;;;;;4916374;29;19918;-79
2022/06/23 12:36:05;;;;;;;2.53;1.25;;;31.70;49.50;;;;;;4917532;29;20039;-79
2022/06/23 12:38:33;;;;;;;3.10;1.70;;;31.70;49.50;;;;;;4902006;29;20046;-77
2022/06/23 12:41:07;;;;;;;2.97;1.70;;;31.70;49.40;;;;;;4917970;29;20035;-77
2022/06/23 12:43:56;;;;;;;3.28;1.83;;;31.80;49.30;;;;;;4901382;29;20414;-77
2022/06/23 12:46:46;;;;;;;2.17;1.60;;;31.80;49.10;;;;;;4917194;29;20032;-78
2022/06/23 12:49:34;;;;;;;2.72;1.70;;;31.80;49.00;;;;;;4917886;29;20047;-80
2022/06/23 12:52:29;;;;;;;2.40;1.70;;;31.80;48.90;;;;;;4891431;29;20048;-80
2022/06/23 12:55:06;;;;;;;3.90;1.83;;;31.80;48.80;;;;;;4886128;29;20037;-79
2022/06/23 12:58:17;;;;;;;2.42;1.70;;;31.80;48.60;;;;;;4916716;29;20036;-79
2022/06/23 13:00:48;;;;;;;1.60;1.42;;;31.80;48.70;;;;;;4918074;29;20084;-80
2022/06/23 13:03:31;;;;;;;2.53;1.52;;;31.90;48.60;;;;;;4916820;29;20059;-78
2022/06/23 13:06:55;;;;;;;3.75;1.77;;;31.90;48.50;;;;;;4916738;29;20033;-79
2022/06/23 13:09:36;;;;;;;2.78;1.67;;;31.90;48.50;;;;;;4840813;29;20069;-77
2022/06/23 13:12:25;;;;;;;2.83;1.75;;;31.90;48.30;;;;;;4825668;29;20042;-75
2022/06/23 13:15:00;;;;;;;2.58;1.55;;;32.00;48.50;;;;;;4879871;29;20112;-78
2022/06/23 13:17:28;;;;;;;2.42;1.67;;;32.00;48.40;;;;;;4885550;29;20460;-76
2022/06/23 13:20:16;;;;;;;2.42;1.45;;;32.00;48.30;;;;;;4900748;29;20372;-79
2022/06/23 13:23:22;;;;;;;2.70;1.80;;;32.00;48.30;;;;;;4916441;29;20031;-77
2022/06/23 13:26:03;;;;;;;2.58;1.55;;;32.10;48.40;;;;;;4914776;29;20047;-78
2022/06/23 13:28:35;;;;;;;2.60;1.80;;;32.10;48.30;;;;;;4917324;29;20063;-78
2022/06/23 13:31:13;;;;;;;2.17;1.58;;;32.10;48.20;;;;;;4900297;29;20043;-77
2022/06/23 13:34:03;;;;;;;2.92;1.80;;;32.10;48.10;;;;;;4915880;29;20036;-76
2022/06/23 13:36:45;;;;;;;3.20;1.30;;;32.10;48.10;;;;;;4916046;29;20091;-75
2022/06/23 13:39:25;;;;;;;2.50;1.27;;;32.20;48.20;;;;;;4900437;29;20130;-79
2022/06/23 13:42:17;;;;;;;3.63;1.63;;;32.20;48.10;;;;;;4900845;29;20083;-79
2022/06/23 13:44:46;;;;;;;2.38;1.48;;;32.20;48.10;;;;;;4900794;29;20135;-77
2022/06/23 13:47:28;;;;;;;1.67;1.33;;;32.30;48.10;;;;;;4915723;29;20028;-79
2022/06/23 13:50:08;;;;;;;2.95;1.80;;;32.30;48.10;;;;;;4916045;29;20036;-77
2022/06/23 13:53:12;;;;;;;3.38;1.60;;;32.30;48.10;;;;;;4900085;29;20039;-78
2022/06/23 13:56:07;;;;;;;3.23;1.50;;;32.30;48.10;;;;;;4840357;29;20380;-79
2022/06/23 13:58:43;;;;;;;2.08;1.60;;;32.30;48.20;;;;;;4900047;29;20039;-76
2022/06/23 14:01:24;;;;;;;3.63;1.70;;;32.30;48.00;;;;;;4916485;29;20119;-78
2022/06/23 14:03:56;;;;;;;3.25;1.45;;;32.40;48.10;;;;;;4916671;29;20038;-78
2022/06/23 14:06:45;;;;;;;2.08;1.50;;;32.40;48.00;;;;;;4899812;29;20058;-77
2022/06/23 14:09:42;;;;;;;1.88;1.45;;;32.40;48.00;;;;;;4915621;29;20096;-75
2022/06/23 14:12:56;;;;;;;3.30;1.45;;;32.40;47.90;;;;;;4906767;29;20063;-76
2022/06/23 14:15:40;;;;;;;3.08;1.45;;;32.50;48.00;;;;;;4911281;29;20456;-78